sensor_id;sensor_type;location;lat;lon;timestamp;pressure;altitude;pressure_sealevel;temperature;humidity
20622;BME280;10470;42.670;23.354;2023-02-12T00:00:33;95795.78;;;1.48;62.60
20622;BME280;10470;42.670;23.354;2023-02-12T00:03:18;95785.94;;;1.59;63.03
20622;BME280;10470;42.670;23.354;2023-02-12T00:06:04;95767.34;;;1.47;63.21
20622;BME280;10470;42.670;23.354;2023-02-12T00:08:51;95774.31;;;1.51;63.69
20622;BME280;10470;42.670;23.354;2023-02-12T00:11:37;95787.03;;;1.55;63.74
20622;BME280;10470;42.670;23.354;2023-02-12T00:14:22;95785.50;;;1.53;63.95
20622;BME280;10470;42.670;23.354;2023-02-12T00:17:08;95783.50;;;1.50;63.61
20622;BME280;10470;42.670;23.354;2023-02-12T00:19:53;95786.25;;;1.54;63.69
20622;BME280;10470;42.670;23.354;2023-02-12T00:22:38;95791.41;;;1.40;63.87
20622;BME280;10470;42.670;23.354;2023-02-12T00:25:24;95780.31;;;1.41;63.78
20622;BME280;10470;42.670;23.354;2023-02-12T00:28:09;95781.94;;;1.46;64.08
20622;BME280;10470;42.670;23.354;2023-02-12T00:30:55;95772.63;;;1.40;64.24
20622;BME280;10470;42.670;23.354;2023-02-12T00:33:40;95775.63;;;1.35;64.37
20622;BME280;10470;42.670;23.354;2023-02-12T00:36:28;95763.03;;;1.39;64.12
20622;BME280;10470;42.670;23.354;2023-02-12T00:39:14;95775.72;;;1.42;64.09
20622;BME280;10470;42.670;23.354;2023-02-12T00:42:00;95759.69;;;1.45;63.79
20622;BME280;10470;42.670;23.354;2023-02-12T00:44:45;95755.72;;;1.36;63.75
20622;BME280;10470;42.670;23.354;2023-02-12T00:47:30;95755.84;;;1.46;63.23
20622;BME280;10470;42.670;23.354;2023-02-12T00:50:16;95750.38;;;1.39;63.69
20622;BME280;10470;42.670;23.354;2023-02-12T00:53:01;95752.00;;;1.47;63.70
20622;BME280;10470;42.670;23.354;2023-02-12T00:55:47;95757.03;;;1.49;63.85
20622;BME280;10470;42.670;23.354;2023-02-12T00:58:32;95740.06;;;1.41;63.83
20622;BME280;10470;42.670;23.354;2023-02-12T01:01:18;95751.66;;;1.49;63.97
20622;BME280;10470;42.670;23.354;2023-02-12T01:04:03;95736.22;;;1.42;63.71
20622;BME280;10470;42.670;23.354;2023-02-12T01:06:49;95734.81;;;1.52;63.64
20622;BME280;10470;42.670;23.354;2023-02-12T01:09:35;95746.59;;;1.44;63.80
20622;BME280;10470;42.670;23.354;2023-02-12T01:12:20;95750.94;;;1.52;63.63
20622;BME280;10470;42.670;23.354;2023-02-12T01:15:06;95744.69;;;1.44;63.97
20622;BME280;10470;42.670;23.354;2023-02-12T01:17:54;95739.22;;;1.37;64.38
20622;BME280;10470;42.670;23.354;2023-02-12T01:20:39;95741.72;;;1.53;64.27
20622;BME280;10470;42.670;23.354;2023-02-12T01:23:25;95758.19;;;1.48;64.23
20622;BME280;10470;42.670;23.354;2023-02-12T01:26:11;95753.19;;;1.50;64.72
20622;BME280;10470;42.670;23.354;2023-02-12T01:28:59;95763.94;;;1.50;65.17
20622;BME280;10470;42.670;23.354;2023-02-12T01:31:45;95761.66;;;1.52;65.53
20622;BME280;10470;42.670;23.354;2023-02-12T01:34:31;95764.34;;;1.52;65.79
20622;BME280;10470;42.670;23.354;2023-02-12T01:37:16;95741.56;;;1.39;66.63
20622;BME280;10470;42.670;23.354;2023-02-12T01:40:03;95744.66;;;1.41;66.80
20622;BME280;10470;42.670;23.354;2023-02-12T01:42:48;95735.00;;;1.36;67.72
20622;BME280;10470;42.670;23.354;2023-02-12T01:45:46;95736.09;;;1.31;68.66
20622;BME280;10470;42.670;23.354;2023-02-12T01:48:36;95729.50;;;1.25;69.21
20622;BME280;10470;42.670;23.354;2023-02-12T01:51:23;95719.06;;;1.20;70.00
20622;BME280;10470;42.670;23.354;2023-02-12T01:54:11;95722.31;;;1.33;70.48
20622;BME280;10470;42.670;23.354;2023-02-12T01:56:59;95720.03;;;1.35;70.76
20622;BME280;10470;42.670;23.354;2023-02-12T01:59:47;95718.03;;;1.28;70.59
20622;BME280;10470;42.670;23.354;2023-02-12T02:02:37;95727.25;;;1.31;70.93
20622;BME280;10470;42.670;23.354;2023-02-12T02:05:43;95731.88;;;1.30;70.60
20622;BME280;10470;42.670;23.354;2023-02-12T02:08:31;95730.69;;;1.28;71.28
20622;BME280;10470;42.670;23.354;2023-02-12T02:11:16;95728.56;;;1.14;72.90
20622;BME280;10470;42.670;23.354;2023-02-12T02:14:20;95725.53;;;0.89;78.25
20622;BME280;10470;42.670;23.354;2023-02-12T02:23:51;95732.44;;;0.63;88.95
20622;BME280;10470;42.670;23.354;2023-02-12T02:26:58;95722.59;;;0.71;91.61
20622;BME280;10470;42.670;23.354;2023-02-12T02:30:14;95714.13;;;0.69;93.39
20622;BME280;10470;42.670;23.354;2023-02-12T02:33:23;95717.50;;;0.39;98.30
20622;BME280;10470;42.670;23.354;2023-02-12T02:36:16;95716.66;;;0.35;99.70
20622;BME280;10470;42.670;23.354;2023-02-12T02:39:21;95704.97;;;0.47;97.96
20622;BME280;10470;42.670;23.354;2023-02-12T02:45:05;95704.72;;;0.56;95.41
20622;BME280;10470;42.670;23.354;2023-02-12T02:48:07;95717.09;;;0.64;96.37
20622;BME280;10470;42.670;23.354;2023-02-12T02:50:58;95716.81;;;0.69;95.46
20622;BME280;10470;42.670;23.354;2023-02-12T02:53:48;95723.09;;;0.80;95.05
20622;BME280;10470;42.670;23.354;2023-02-12T02:56:37;95719.22;;;0.78;94.75
20622;BME280;10470;42.670;23.354;2023-02-12T02:59:27;95721.13;;;0.77;97.47
20622;BME280;10470;42.670;23.354;2023-02-12T03:02:19;95721.34;;;0.92;97.85
20622;BME280;10470;42.670;23.354;2023-02-12T03:07:56;95714.97;;;0.73;100.00
20622;BME280;10470;42.670;23.354;2023-02-12T03:10:45;95711.16;;;0.78;100.00
20622;BME280;10470;42.670;23.354;2023-02-12T03:13:39;95715.91;;;0.88;100.00
20622;BME280;10470;42.670;23.354;2023-02-12T03:16:30;95726.41;;;0.97;100.00
20622;BME280;10470;42.670;23.354;2023-02-12T03:19:20;95716.88;;;0.99;100.00
20622;BME280;10470;42.670;23.354;2023-02-12T03:22:14;95696.06;;;0.93;99.85
20622;BME280;10470;42.670;23.354;2023-02-12T03:25:13;95702.75;;;1.06;100.00
20622;BME280;10470;42.670;23.354;2023-02-12T03:28:12;95704.22;;;1.00;100.00
20622;BME280;10470;42.670;23.354;2023-02-12T03:34:11;95716.22;;;0.83;100.00
20622;BME280;10470;42.670;23.354;2023-02-12T03:40:19;95701.56;;;0.73;100.00
20622;BME280;10470;42.670;23.354;2023-02-12T03:43:26;95705.50;;;0.83;100.00
20622;BME280;10470;42.670;23.354;2023-02-12T03:46:21;95706.53;;;0.75;100.00
20622;BME280;10470;42.670;23.354;2023-02-12T03:49:19;95710.94;;;0.60;100.00
20622;BME280;10470;42.670;23.354;2023-02-12T03:52:06;95712.41;;;0.57;100.00
20622;BME280;10470;42.670;23.354;2023-02-12T03:54:51;95709.91;;;0.45;100.00
20622;BME280;10470;42.670;23.354;2023-02-12T03:57:45;95708.47;;;0.51;100.00
20622;BME280;10470;42.670;23.354;2023-02-12T04:00:32;95698.91;;;0.50;100.00
20622;BME280;10470;42.670;23.354;2023-02-12T04:03:17;95686.13;;;0.43;100.00
20622;BME280;10470;42.670;23.354;2023-02-12T04:06:03;95704.38;;;0.57;100.00
20622;BME280;10470;42.670;23.354;2023-02-12T04:08:49;95706.34;;;0.60;100.00
20622;BME280;10470;42.670;23.354;2023-02-12T04:11:49;95703.50;;;0.76;100.00
20622;BME280;10470;42.670;23.354;2023-02-12T04:24:14;95717.22;;;0.71;100.00
20622;BME280;10470;42.670;23.354;2023-02-12T04:27:13;95728.72;;;0.72;100.00
20622;BME280;10470;42.670;23.354;2023-02-12T04:30:09;95730.59;;;0.68;100.00
20622;BME280;10470;42.670;23.354;2023-02-12T04:33:02;95722.16;;;0.69;100.00
20622;BME280;10470;42.670;23.354;2023-02-12T04:35:54;95738.34;;;0.73;100.00
20622;BME280;10470;42.670;23.354;2023-02-12T04:38:52;95729.44;;;0.69;100.00
20622;BME280;10470;42.670;23.354;2023-02-12T04:41:39;95726.41;;;0.70;100.00
20622;BME280;10470;42.670;23.354;2023-02-12T04:44:28;95694.72;;;0.53;100.00
20622;BME280;10470;42.670;23.354;2023-02-12T04:47:15;95735.00;;;0.83;100.00
20622;BME280;10470;42.670;23.354;2023-02-12T04:50:01;95737.59;;;0.76;100.00
20622;BME280;10470;42.670;23.354;2023-02-12T04:52:47;95736.50;;;0.80;100.00
20622;BME280;10470;42.670;23.354;2023-02-12T04:55:32;95740.06;;;0.88;100.00
20622;BME280;10470;42.670;23.354;2023-02-12T04:58:18;95733.47;;;0.82;100.00
20622;BME280;10470;42.670;23.354;2023-02-12T05:01:03;95741.53;;;0.82;100.00
20622;BME280;10470;42.670;23.354;2023-02-12T05:03:50;95738.94;;;0.89;100.00
20622;BME280;10470;42.670;23.354;2023-02-12T05:06:36;95731.78;;;0.97;100.00
20622;BME280;10470;42.670;23.354;2023-02-12T05:09:22;95718.56;;;0.84;100.00
20622;BME280;10470;42.670;23.354;2023-02-12T05:12:08;95732.91;;;0.96;100.00
20622;BME280;10470;42.670;23.354;2023-02-12T05:14:53;95742.44;;;0.93;100.00
20622;BME280;10470;42.670;23.354;2023-02-12T05:17:38;95754.84;;;1.01;100.00
20622;BME280;10470;42.670;23.354;2023-02-12T05:20:24;95749.53;;;1.05;100.00
20622;BME280;10470;42.670;23.354;2023-02-12T05:23:09;95755.19;;;1.00;100.00
20622;BME280;10470;42.670;23.354;2023-02-12T05:25:57;95760.69;;;1.07;100.00
20622;BME280;10470;42.670;23.354;2023-02-12T05:28:43;95765.63;;;1.05;100.00
20622;BME280;10470;42.670;23.354;2023-02-12T05:31:29;95764.59;;;1.13;100.00
20622;BME280;10470;42.670;23.354;2023-02-12T05:34:14;95772.38;;;1.22;100.00
20622;BME280;10470;42.670;23.354;2023-02-12T05:37:00;95779.72;;;1.25;100.00
20622;BME280;10470;42.670;23.354;2023-02-12T05:39:48;95777.09;;;1.28;100.00
20622;BME280;10470;42.670;23.354;2023-02-12T05:42:34;95782.44;;;1.28;100.00
20622;BME280;10470;42.670;23.354;2023-02-12T05:45:20;95782.44;;;1.28;100.00
20622;BME280;10470;42.670;23.354;2023-02-12T05:48:06;95789.03;;;1.35;100.00
20622;BME280;10470;42.670;23.354;2023-02-12T05:50:51;95784.91;;;1.14;100.00
20622;BME280;10470;42.670;23.354;2023-02-12T05:53:38;95782.59;;;1.13;100.00
20622;BME280;10470;42.670;23.354;2023-02-12T05:56:26;95795.03;;;0.98;100.00
20622;BME280;10470;42.670;23.354;2023-02-12T05:59:20;95795.09;;;1.01;100.00
20622;BME280;10470;42.670;23.354;2023-02-12T06:02:05;95780.81;;;0.94;100.00
20622;BME280;10470;42.670;23.354;2023-02-12T06:04:51;95796.16;;;0.97;100.00
20622;BME280;10470;42.670;23.354;2023-02-12T06:07:36;95799.88;;;0.89;100.00
20622;BME280;10470;42.670;23.354;2023-02-12T06:10:22;95794.25;;;0.97;100.00
20622;BME280;10470;42.670;23.354;2023-02-12T06:13:07;95792.22;;;0.91;100.00
20622;BME280;10470;42.670;23.354;2023-02-12T06:15:53;95793.84;;;0.95;100.00
20622;BME280;10470;42.670;23.354;2023-02-12T06:18:38;95805.34;;;0.96;100.00
20622;BME280;10470;42.670;23.354;2023-02-12T06:21:24;95800.56;;;1.08;100.00
20622;BME280;10470;42.670;23.354;2023-02-12T06:24:14;95794.84;;;1.10;100.00
20622;BME280;10470;42.670;23.354;2023-02-12T06:27:00;95795.19;;;1.08;100.00
20622;BME280;10470;42.670;23.354;2023-02-12T06:29:46;95794.56;;;0.92;100.00
20622;BME280;10470;42.670;23.354;2023-02-12T06:32:31;95803.03;;;0.94;100.00
20622;BME280;10470;42.670;23.354;2023-02-12T06:35:16;95796.97;;;1.01;100.00
20622;BME280;10470;42.670;23.354;2023-02-12T06:38:02;95799.03;;;0.84;100.00
20622;BME280;10470;42.670;23.354;2023-02-12T06:40:48;95814.28;;;0.80;100.00
20622;BME280;10470;42.670;23.354;2023-02-12T06:43:33;95800.41;;;0.75;100.00
20622;BME280;10470;42.670;23.354;2023-02-12T06:46:19;95813.63;;;0.87;100.00
20622;BME280;10470;42.670;23.354;2023-02-12T06:49:05;95801.97;;;0.76;100.00
20622;BME280;10470;42.670;23.354;2023-02-12T06:51:50;95796.31;;;0.81;100.00
20622;BME280;10470;42.670;23.354;2023-02-12T06:54:35;95800.53;;;0.82;100.00
20622;BME280;10470;42.670;23.354;2023-02-12T06:57:21;95802.13;;;0.86;100.00
20622;BME280;10470;42.670;23.354;2023-02-12T07:00:07;95808.28;;;0.87;100.00
20622;BME280;10470;42.670;23.354;2023-02-12T07:02:54;95799.75;;;0.81;100.00
20622;BME280;10470;42.670;23.354;2023-02-12T07:05:39;95803.97;;;0.82;100.00
20622;BME280;10470;42.670;23.354;2023-02-12T07:08:25;95805.28;;;0.92;100.00
20622;BME280;10470;42.670;23.354;2023-02-12T07:11:10;95802.34;;;1.01;100.00
20622;BME280;10470;42.670;23.354;2023-02-12T07:13:56;95801.16;;;0.98;100.00
20622;BME280;10470;42.670;23.354;2023-02-12T07:16:41;95820.31;;;0.97;100.00
20622;BME280;10470;42.670;23.354;2023-02-12T07:19:27;95817.69;;;1.00;100.00
20622;BME280;10470;42.670;23.354;2023-02-12T07:22:12;95815.38;;;0.99;100.00
20622;BME280;10470;42.670;23.354;2023-02-12T07:24:58;95816.19;;;1.03;100.00
20622;BME280;10470;42.670;23.354;2023-02-12T07:27:43;95795.31;;;0.93;100.00
20622;BME280;10470;42.670;23.354;2023-02-12T07:30:28;95814.13;;;0.93;100.00
20622;BME280;10470;42.670;23.354;2023-02-12T07:33:14;95807.69;;;0.97;100.00
20622;BME280;10470;42.670;23.354;2023-02-12T07:36:00;95804.16;;;0.93;100.00
20622;BME280;10470;42.670;23.354;2023-02-12T07:38:46;95817.41;;;0.82;100.00
20622;BME280;10470;42.670;23.354;2023-02-12T07:41:34;95822.00;;;0.82;100.00
20622;BME280;10470;42.670;23.354;2023-02-12T07:44:20;95821.38;;;0.92;100.00
20622;BME280;10470;42.670;23.354;2023-02-12T07:47:05;95815.31;;;0.72;100.00
20622;BME280;10470;42.670;23.354;2023-02-12T07:49:51;95824.97;;;0.77;100.00
20622;BME280;10470;42.670;23.354;2023-02-12T07:52:36;95833.31;;;0.72;100.00
20622;BME280;10470;42.670;23.354;2023-02-12T07:55:22;95824.66;;;0.82;100.00
20622;BME280;10470;42.670;23.354;2023-02-12T07:58:07;95831.22;;;0.84;100.00
20622;BME280;10470;42.670;23.354;2023-02-12T08:00:53;95828.78;;;0.76;100.00
20622;BME280;10470;42.670;23.354;2023-02-12T08:03:38;95831.47;;;0.76;100.00
20622;BME280;10470;42.670;23.354;2023-02-12T08:06:27;95828.88;;;0.83;100.00
20622;BME280;10470;42.670;23.354;2023-02-12T08:09:18;95823.81;;;0.78;100.00
20622;BME280;10470;42.670;23.354;2023-02-12T08:12:04;95818.88;;;0.80;100.00
20622;BME280;10470;42.670;23.354;2023-02-12T08:14:49;95832.88;;;0.93;100.00
20622;BME280;10470;42.670;23.354;2023-02-12T08:17:35;95822.72;;;0.79;100.00
20622;BME280;10470;42.670;23.354;2023-02-12T08:20:20;95825.91;;;0.88;100.00
20622;BME280;10470;42.670;23.354;2023-02-12T08:23:06;95828.00;;;0.98;100.00
20622;BME280;10470;42.670;23.354;2023-02-12T08:25:51;95833.56;;;1.09;100.00
20622;BME280;10470;42.670;23.354;2023-02-12T08:28:39;95841.47;;;1.02;100.00
20622;BME280;10470;42.670;23.354;2023-02-12T08:31:26;95843.28;;;0.94;100.00
20622;BME280;10470;42.670;23.354;2023-02-12T08:34:20;95845.47;;;1.12;100.00
20622;BME280;10470;42.670;23.354;2023-02-12T08:37:05;95843.41;;;1.01;100.00
20622;BME280;10470;42.670;23.354;2023-02-12T08:39:51;95851.84;;;1.03;100.00
20622;BME280;10470;42.670;23.354;2023-02-12T08:42:36;95859.66;;;1.12;100.00
20622;BME280;10470;42.670;23.354;2023-02-12T08:45:22;95858.47;;;1.09;100.00
20622;BME280;10470;42.670;23.354;2023-02-12T08:48:07;95877.03;;;1.45;100.00
20622;BME280;10470;42.670;23.354;2023-02-12T08:50:53;95864.19;;;1.08;100.00
20622;BME280;10470;42.670;23.354;2023-02-12T08:53:40;95873.72;;;1.28;100.00
20622;BME280;10470;42.670;23.354;2023-02-12T08:56:27;95860.25;;;1.25;100.00
20622;BME280;10470;42.670;23.354;2023-02-12T08:59:15;95873.41;;;1.34;100.00
20622;BME280;10470;42.670;23.354;2023-02-12T09:02:00;95877.34;;;1.17;100.00
20622;BME280;10470;42.670;23.354;2023-02-12T09:04:48;95881.78;;;1.05;100.00
20622;BME280;10470;42.670;23.354;2023-02-12T09:07:33;95890.72;;;1.13;100.00
20622;BME280;10470;42.670;23.354;2023-02-12T09:10:19;95885.97;;;1.03;100.00
20622;BME280;10470;42.670;23.354;2023-02-12T09:13:06;95874.94;;;1.08;100.00
20622;BME280;10470;42.670;23.354;2023-02-12T09:15:52;95882.03;;;1.20;100.00
20622;BME280;10470;42.670;23.354;2023-02-12T09:18:38;95888.00;;;1.33;100.00
20622;BME280;10470;42.670;23.354;2023-02-12T09:21:24;95879.97;;;1.36;100.00
20622;BME280;10470;42.670;23.354;2023-02-12T09:24:09;95888.44;;;1.38;100.00
20622;BME280;10470;42.670;23.354;2023-02-12T09:26:55;95897.56;;;1.34;100.00
20622;BME280;10470;42.670;23.354;2023-02-12T09:29:40;95891.78;;;1.31;100.00
20622;BME280;10470;42.670;23.354;2023-02-12T09:32:26;95898.34;;;1.34;100.00
20622;BME280;10470;42.670;23.354;2023-02-12T09:35:11;95902.34;;;1.44;100.00
20622;BME280;10470;42.670;23.354;2023-02-12T09:37:57;95910.22;;;1.33;100.00
20622;BME280;10470;42.670;23.354;2023-02-12T09:41:00;95903.50;;;1.43;100.00
20622;BME280;10470;42.670;23.354;2023-02-12T09:47:00;95914.84;;;1.33;100.00
20622;BME280;10470;42.670;23.354;2023-02-12T09:52:54;95902.53;;;1.31;100.00
20622;BME280;10470;42.670;23.354;2023-02-12T09:55:42;95911.88;;;1.41;100.00
20622;BME280;10470;42.670;23.354;2023-02-12T10:01:18;95905.97;;;1.55;100.00
20622;BME280;10470;42.670;23.354;2023-02-12T10:04:04;95918.84;;;1.95;100.00
20622;BME280;10470;42.670;23.354;2023-02-12T10:07:18;95911.19;;;1.71;100.00
20622;BME280;10470;42.670;23.354;2023-02-12T10:28:10;95917.94;;;2.45;100.00
20622;BME280;10470;42.670;23.354;2023-02-12T10:30:59;95922.53;;;2.78;100.00
20622;BME280;10470;42.670;23.354;2023-02-12T10:33:48;95911.84;;;2.51;100.00
20622;BME280;10470;42.670;23.354;2023-02-12T10:36:45;95926.00;;;2.78;100.00
20622;BME280;10470;42.670;23.354;2023-02-12T10:39:35;95915.63;;;2.13;100.00
20622;BME280;10470;42.670;23.354;2023-02-12T10:45:30;95908.47;;;2.24;100.00
20622;BME280;10470;42.670;23.354;2023-02-12T10:48:19;95912.34;;;2.27;100.00
20622;BME280;10470;42.670;23.354;2023-02-12T10:53:54;95924.81;;;2.42;100.00
20622;BME280;10470;42.670;23.354;2023-02-12T10:56:39;95917.53;;;2.46;100.00
20622;BME280;10470;42.670;23.354;2023-02-12T10:59:25;95924.56;;;2.88;100.00
20622;BME280;10470;42.670;23.354;2023-02-12T11:05:21;95935.78;;;2.97;100.00
20622;BME280;10470;42.670;23.354;2023-02-12T11:08:35;95924.41;;;2.74;100.00
20622;BME280;10470;42.670;23.354;2023-02-12T11:11:23;95924.16;;;2.86;100.00
20622;BME280;10470;42.670;23.354;2023-02-12T11:14:19;95923.06;;;2.91;100.00
20622;BME280;10470;42.670;23.354;2023-02-12T11:17:26;95911.59;;;3.01;100.00
20622;BME280;10470;42.670;23.354;2023-02-12T11:23:04;95920.84;;;3.44;100.00
20622;BME280;10470;42.670;23.354;2023-02-12T11:26:39;95918.06;;;3.34;100.00
20622;BME280;10470;42.670;23.354;2023-02-12T11:29:22;95912.66;;;3.30;100.00
20622;BME280;10470;42.670;23.354;2023-02-12T11:32:19;95918.91;;;3.45;100.00
20622;BME280;10470;42.670;23.354;2023-02-12T11:37:59;95914.91;;;3.24;100.00
20622;BME280;10470;42.670;23.354;2023-02-12T11:40:46;95914.16;;;3.27;100.00
20622;BME280;10470;42.670;23.354;2023-02-12T11:43:33;95919.88;;;2.81;100.00
20622;BME280;10470;42.670;23.354;2023-02-12T11:46:25;95926.22;;;3.00;100.00
20622;BME280;10470;42.670;23.354;2023-02-12T11:50:01;95914.13;;;3.24;100.00
20622;BME280;10470;42.670;23.354;2023-02-12T11:52:30;95911.53;;;3.35;100.00
20622;BME280;10470;42.670;23.354;2023-02-12T11:58:17;95901.91;;;3.34;100.00
20622;BME280;10470;42.670;23.354;2023-02-12T12:01:11;95910.22;;;3.14;100.00
20622;BME280;10470;42.670;23.354;2023-02-12T12:04:15;95912.75;;;3.44;100.00
20622;BME280;10470;42.670;23.354;2023-02-12T12:07:18;95925.59;;;3.62;100.00
20622;BME280;10470;42.670;23.354;2023-02-12T12:10:24;95915.19;;;3.60;100.00
20622;BME280;10470;42.670;23.354;2023-02-12T12:13:21;95898.19;;;3.49;100.00
20622;BME280;10470;42.670;23.354;2023-02-12T12:16:19;95902.78;;;3.48;100.00
20622;BME280;10470;42.670;23.354;2023-02-12T12:19:31;95913.56;;;3.48;100.00
20622;BME280;10470;42.670;23.354;2023-02-12T12:23:01;95925.88;;;3.49;100.00
20622;BME280;10470;42.670;23.354;2023-02-12T12:25:56;95914.34;;;3.49;100.00
20622;BME280;10470;42.670;23.354;2023-02-12T12:29:05;95921.47;;;3.75;100.00
20622;BME280;10470;42.670;23.354;2023-02-12T12:31:55;95934.47;;;3.62;100.00
20622;BME280;10470;42.670;23.354;2023-02-12T12:34:43;95941.75;;;3.58;100.00
20622;BME280;10470;42.670;23.354;2023-02-12T12:37:43;95937.66;;;3.31;100.00
20622;BME280;10470;42.670;23.354;2023-02-12T12:47:16;95936.84;;;3.71;100.00
20622;BME280;10470;42.670;23.354;2023-02-12T12:53:37;95948.53;;;3.45;100.00
20622;BME280;10470;42.670;23.354;2023-02-12T12:59:43;95948.47;;;3.86;100.00
20622;BME280;10470;42.670;23.354;2023-02-12T13:09:38;95958.03;;;3.72;100.00
20622;BME280;10470;42.670;23.354;2023-02-12T13:15:38;95959.47;;;3.59;100.00
20622;BME280;10470;42.670;23.354;2023-02-12T13:27:34;95966.03;;;3.62;100.00
20622;BME280;10470;42.670;23.354;2023-02-12T13:30:25;95962.63;;;3.72;100.00
20622;BME280;10470;42.670;23.354;2023-02-12T13:33:19;95966.03;;;3.62;100.00
20622;BME280;10470;42.670;23.354;2023-02-12T13:36:07;95954.88;;;3.63;100.00
20622;BME280;10470;42.670;23.354;2023-02-12T13:51:01;95972.78;;;3.41;100.00
20622;BME280;10470;42.670;23.354;2023-02-12T13:56:55;95988.84;;;3.31;100.00
20622;BME280;10470;42.670;23.354;2023-02-12T13:59:46;95985.50;;;3.44;100.00
20622;BME280;10470;42.670;23.354;2023-02-12T14:05:28;95982.94;;;3.59;100.00
20622;BME280;10470;42.670;23.354;2023-02-12T14:08:35;95999.84;;;3.56;100.00
20622;BME280;10470;42.670;23.354;2023-02-12T14:11:23;95996.78;;;3.57;100.00
20622;BME280;10470;42.670;23.354;2023-02-12T14:14:10;96002.91;;;3.54;100.00
20622;BME280;10470;42.670;23.354;2023-02-12T14:16:55;96007.78;;;3.41;100.00
20622;BME280;10470;42.670;23.354;2023-02-12T14:25:38;96012.69;;;3.73;100.00
20622;BME280;10470;42.670;23.354;2023-02-12T14:28:33;96018.41;;;3.64;100.00
20622;BME280;10470;42.670;23.354;2023-02-12T14:37:11;96028.41;;;3.64;100.00
20622;BME280;10470;42.670;23.354;2023-02-12T14:52:05;96044.94;;;3.62;100.00
20622;BME280;10470;42.670;23.354;2023-02-12T14:55:01;96040.31;;;3.63;100.00
20622;BME280;10470;42.670;23.354;2023-02-12T14:57:47;96051.91;;;3.67;100.00
20622;BME280;10470;42.670;23.354;2023-02-12T15:00:40;96057.97;;;3.57;100.00
20622;BME280;10470;42.670;23.354;2023-02-12T15:03:47;96064.63;;;3.66;100.00
20622;BME280;10470;42.670;23.354;2023-02-12T15:06:41;96062.28;;;3.65;100.00
20622;BME280;10470;42.670;23.354;2023-02-12T15:09:29;96071.19;;;3.69;100.00
20622;BME280;10470;42.670;23.354;2023-02-12T15:12:20;96076.06;;;3.56;100.00
20622;BME280;10470;42.670;23.354;2023-02-12T15:15:33;96077.59;;;3.54;100.00
20622;BME280;10470;42.670;23.354;2023-02-12T15:18:51;96094.19;;;3.59;100.00
20622;BME280;10470;42.670;23.354;2023-02-12T15:21:36;96094.53;;;3.54;100.00
20622;BME280;10470;42.670;23.354;2023-02-12T15:24:23;96101.13;;;3.60;100.00
20622;BME280;10470;42.670;23.354;2023-02-12T15:27:12;96121.25;;;3.36;100.00
20622;BME280;10470;42.670;23.354;2023-02-12T15:29:59;96115.06;;;3.32;100.00
20622;BME280;10470;42.670;23.354;2023-02-12T15:32:45;96127.72;;;3.28;100.00
20622;BME280;10470;42.670;23.354;2023-02-12T15:35:33;96138.38;;;3.21;100.00
20622;BME280;10470;42.670;23.354;2023-02-12T15:38:26;96133.09;;;3.28;100.00
20622;BME280;10470;42.670;23.354;2023-02-12T15:44:29;96135.78;;;3.28;100.00
20622;BME280;10470;42.670;23.354;2023-02-12T15:47:15;96144.00;;;3.39;100.00
20622;BME280;10470;42.670;23.354;2023-02-12T15:50:01;96138.06;;;3.26;100.00
20622;BME280;10470;42.670;23.354;2023-02-12T15:52:48;96146.97;;;3.30;100.00
20622;BME280;10470;42.670;23.354;2023-02-12T15:55:38;96147.59;;;3.50;100.00
20622;BME280;10470;42.670;23.354;2023-02-12T16:01:18;96150.59;;;3.45;100.00
20622;BME280;10470;42.670;23.354;2023-02-12T16:04:05;96150.56;;;3.41;100.00
20622;BME280;10470;42.670;23.354;2023-02-12T16:06:51;96160.06;;;3.32;100.00
20622;BME280;10470;42.670;23.354;2023-02-12T16:09:37;96185.09;;;3.32;100.00
20622;BME280;10470;42.670;23.354;2023-02-12T16:12:28;96176.22;;;3.32;100.00
20622;BME280;10470;42.670;23.354;2023-02-12T16:15:30;96171.13;;;3.23;100.00
20622;BME280;10470;42.670;23.354;2023-02-12T16:18:25;96184.28;;;3.28;100.00
20622;BME280;10470;42.670;23.354;2023-02-12T16:21:22;96191.31;;;3.36;100.00
20622;BME280;10470;42.670;23.354;2023-02-12T16:24:28;96203.44;;;3.23;100.00
20622;BME280;10470;42.670;23.354;2023-02-12T16:40:05;96213.13;;;3.01;100.00
20622;BME280;10470;42.670;23.354;2023-02-12T16:42:27;96222.16;;;3.12;100.00
20622;BME280;10470;42.670;23.354;2023-02-12T16:48:19;96222.59;;;2.91;100.00
20622;BME280;10470;42.670;23.354;2023-02-12T16:51:34;96232.34;;;2.99;100.00
20622;BME280;10470;42.670;23.354;2023-02-12T16:57:10;96228.81;;;2.95;100.00
20622;BME280;10470;42.670;23.354;2023-02-12T16:59:56;96225.81;;;3.00;100.00
20622;BME280;10470;42.670;23.354;2023-02-12T17:02:42;96235.75;;;2.96;100.00
20622;BME280;10470;42.670;23.354;2023-02-12T17:05:27;96245.66;;;2.89;100.00
20622;BME280;10470;42.670;23.354;2023-02-12T17:08:15;96244.38;;;2.82;100.00
20622;BME280;10470;42.670;23.354;2023-02-12T17:11:00;96256.59;;;2.76;100.00
20622;BME280;10470;42.670;23.354;2023-02-12T17:13:47;96247.31;;;2.74;100.00
20622;BME280;10470;42.670;23.354;2023-02-12T17:16:33;96263.22;;;2.82;100.00
20622;BME280;10470;42.670;23.354;2023-02-12T17:19:19;96272.91;;;2.87;100.00
20622;BME280;10470;42.670;23.354;2023-02-12T17:22:05;96276.75;;;2.86;100.00
20622;BME280;10470;42.670;23.354;2023-02-12T17:24:53;96273.50;;;2.77;100.00
20622;BME280;10470;42.670;23.354;2023-02-12T17:27:38;96288.94;;;2.80;100.00
20622;BME280;10470;42.670;23.354;2023-02-12T17:30:24;96292.81;;;2.82;100.00
20622;BME280;10470;42.670;23.354;2023-02-12T17:33:10;96297.91;;;2.88;100.00
20622;BME280;10470;42.670;23.354;2023-02-12T17:35:57;96288.94;;;2.80;100.00
20622;BME280;10470;42.670;23.354;2023-02-12T17:38:43;96291.94;;;2.75;100.00
20622;BME280;10470;42.670;23.354;2023-02-12T17:41:29;96295.63;;;2.67;100.00